createdAt,value
2019-04-22T00:00:55.376Z,100958.96
2019-04-22T00:03:36.094Z,100954.55
2019-04-22T00:06:18.056Z,100956.03
2019-04-22T00:08:55.568Z,100955.34
2019-04-22T00:13:56.681Z,100966.95
2019-04-22T00:16:45.432Z,100965.45
2019-04-22T00:19:19.259Z,100975.17
2019-04-22T00:22:00.537Z,100969.25
2019-04-22T00:24:05.906Z,100967.66
2019-04-22T00:26:37.743Z,100970.20
2019-04-22T00:29:24.142Z,100970.44
2019-04-22T00:31:46.188Z,100976.43
2019-04-22T00:34:16.681Z,100970.00
2019-04-22T00:36:48.418Z,100971.33
2019-04-22T00:39:33.618Z,100970.91
2019-04-22T00:41:55.221Z,100968.98
2019-04-22T00:44:35.341Z,100969.60
2019-04-22T00:47:00.931Z,100967.30
2019-04-22T00:52:09.351Z,100953.34
2019-04-22T00:54:43.889Z,100961.77
2019-04-22T00:57:10.440Z,100954.66
2019-04-22T00:59:40.537Z,100960.77
2019-04-22T01:04:55.995Z,100955.64
2019-04-22T01:07:23.867Z,100961.27
2019-04-22T01:09:58.882Z,100962.39
2019-04-22T01:12:31.922Z,100960.45
2019-04-22T01:15:00.911Z,100960.59
2019-04-22T01:17:35.914Z,100961.67
2019-04-22T01:20:25.748Z,100966.44
2019-04-22T01:22:34.241Z,100965.70
2019-04-22T01:25:08.105Z,100957.78
2019-04-22T01:27:34.542Z,100966.41
2019-04-22T01:30:07.166Z,100963.89
2019-04-22T01:32:33.383Z,100964.62
2019-04-22T01:35:12.986Z,100968.53
2019-04-22T01:37:49.572Z,100968.49
2019-04-22T01:43:03.785Z,100971.34
2019-04-22T01:45:31.402Z,100973.58
2019-04-22T01:48:07.449Z,100967.09
2019-04-22T01:50:41.100Z,100974.47
2019-04-22T01:58:08.515Z,100976.16
2019-04-22T02:00:51.059Z,100976.23
2019-04-22T02:03:17.201Z,100978.65
2019-04-22T02:05:48.464Z,100981.48
2019-04-22T02:08:24.784Z,100981.22
2019-04-22T02:10:54.628Z,100985.90
2019-04-22T02:13:21.422Z,100985.44
2019-04-22T02:16:03.505Z,100987.53
2019-04-22T02:18:31.786Z,100983.13
2019-04-22T02:20:55.299Z,100987.31
2019-04-22T02:26:10.858Z,100986.88
2019-04-22T02:36:23.045Z,100990.12
2019-04-22T02:39:00.006Z,100994.50
2019-04-22T02:41:35.041Z,101003.41
2019-04-22T02:44:03.174Z,100999.42
2019-04-22T02:46:49.982Z,101001.42
2019-04-22T02:49:11.141Z,101001.72
2019-04-22T02:51:28.253Z,101002.39
2019-04-22T02:56:31.446Z,101014.16
2019-04-22T02:59:09.690Z,101011.13
2019-04-22T03:01:36.880Z,101011.37
2019-04-22T03:06:43.511Z,101018.59
2019-04-22T03:14:13.436Z,101019.00
2019-04-22T03:16:44.834Z,101022.41
2019-04-22T03:21:54.582Z,101017.41
2019-04-22T03:24:25.878Z,101025.26
2019-04-22T03:26:59.102Z,101022.84
2019-04-22T03:30:36.466Z,101035.69
2019-04-22T03:37:49.161Z,101041.55
2019-04-22T03:42:52.369Z,101042.03
2019-04-22T03:47:54.225Z,101048.61
2019-04-22T03:53:01.942Z,101055.08
2019-04-22T03:55:23.218Z,101057.89
2019-04-22T04:00:41.719Z,101066.30
2019-04-22T04:03:00.897Z,101063.30
2019-04-22T04:05:43.628Z,101065.91
2019-04-22T04:08:12.148Z,101070.28
2019-04-22T04:15:52.355Z,101077.87
2019-04-22T04:18:32.788Z,101069.94
2019-04-22T04:20:45.291Z,101077.47
2019-04-22T04:28:39.796Z,101077.67
2019-04-22T04:30:55.240Z,101082.97
2019-04-22T04:33:22.972Z,101081.30
2019-04-22T04:36:01.838Z,101083.91
2019-04-22T04:38:28.962Z,101078.63
2019-04-22T04:41:03.699Z,101087.90
2019-04-22T04:43:37.322Z,101089.41
2019-04-22T04:46:06.935Z,101094.59
2019-04-22T04:48:41.967Z,101097.44
2019-04-22T04:51:28.704Z,101102.67
2019-04-22T04:56:11.989Z,101108.34
2019-04-22T05:03:48.956Z,101112.48
2019-04-22T05:06:43.255Z,101111.93
2019-04-22T05:11:32.227Z,101111.87
2019-04-22T05:19:05.635Z,101116.78
2019-04-22T05:21:21.583Z,101116.23
2019-04-22T05:23:53.550Z,101115.33
2019-04-22T05:26:29.323Z,101120.50
2019-04-22T05:29:03.800Z,101122.85
2019-04-22T05:31:32.211Z,101125.66
2019-04-22T05:34:06.292Z,101121.76
2019-04-22T05:36:35.387Z,101118.64
2019-04-22T05:39:06.044Z,101122.64
2019-04-22T05:41:35.922Z,101125.00
2019-04-22T05:44:09.932Z,101127.20
2019-04-22T05:46:34.560Z,101134.63
2019-04-22T05:49:13.465Z,101139.60
2019-04-22T05:51:42.410Z,101133.81
2019-04-22T05:54:14.752Z,101136.40
2019-04-22T05:56:40.914Z,101136.63
2019-04-22T05:59:20.822Z,101142.42
2019-04-22T06:02:05.367Z,101139.70
2019-04-22T06:04:43.196Z,101142.37
2019-04-22T06:06:53.584Z,101150.47
2019-04-22T06:09:28.804Z,101152.37
2019-04-22T06:11:54.496Z,101156.82
2019-04-22T06:14:29.632Z,101153.88
2019-04-22T06:17:10.756Z,101151.66
2019-04-22T06:19:38.556Z,101154.94
2019-04-22T06:22:16.876Z,101152.98
2019-04-22T06:24:43.754Z,101151.13
2019-04-22T06:27:21.832Z,101152.58
2019-04-22T06:29:45.830Z,101160.41
2019-04-22T06:32:26.682Z,101162.58
2019-04-22T06:34:50.810Z,101164.36
2019-04-22T06:37:32.249Z,101168.91
2019-04-22T06:39:51.167Z,101169.25
2019-04-22T06:42:28.451Z,101165.50
2019-04-22T06:44:57.897Z,101168.80
2019-04-22T06:47:44.087Z,101174.31
2019-04-22T06:50:03.000Z,101175.63
2019-04-22T06:52:30.766Z,101176.15
2019-04-22T06:55:13.210Z,101186.08
2019-04-22T06:57:37.027Z,101183.48
2019-04-22T07:00:10.649Z,101177.83
2019-04-22T07:03:26.275Z,101177.88
2019-04-22T07:05:33.945Z,101178.53
2019-04-22T07:08:16.302Z,101171.59
2019-04-22T07:13:11.495Z,101175.45
2019-04-22T07:18:19.697Z,101173.59
2019-04-22T07:20:48.038Z,101167.94
2019-04-22T07:23:24.781Z,101168.91
2019-04-22T07:25:47.938Z,101163.44
2019-04-22T07:30:53.427Z,101165.13
2019-04-22T07:33:28.138Z,101170.20
2019-04-22T07:36:18.173Z,101175.01
2019-04-22T07:38:26.323Z,101175.17
2019-04-22T07:40:56.193Z,101178.38
2019-04-22T07:43:42.929Z,101180.72
2019-04-22T07:46:00.307Z,101186.06
2019-04-22T07:48:43.417Z,101181.89
2019-04-22T07:51:07.207Z,101185.00
2019-04-22T07:53:33.981Z,101184.08
2019-04-22T07:56:16.181Z,101181.09
2019-04-22T07:58:44.402Z,101183.67
2019-04-22T08:01:13.987Z,101193.41
2019-04-22T08:04:00.082Z,101186.91
2019-04-22T08:06:17.502Z,101187.11
2019-04-22T08:08:52.989Z,101188.48
2019-04-22T08:11:37.645Z,101190.42
2019-04-22T08:13:54.627Z,101186.47
2019-04-22T08:16:23.319Z,101186.47
2019-04-22T08:19:04.106Z,101191.49
2019-04-22T08:21:33.309Z,101190.08
2019-04-22T08:24:01.250Z,101201.14
2019-04-22T08:26:31.982Z,101198.57
2019-04-22T08:29:11.996Z,101199.56
2019-04-22T08:31:43.352Z,101197.02
2019-04-22T08:34:14.984Z,101200.63
2019-04-22T08:39:14.089Z,101205.47
2019-04-22T08:41:39.233Z,101203.44
2019-04-22T08:46:50.691Z,101211.16
2019-04-22T08:49:18.881Z,101204.86
2019-04-22T08:51:50.732Z,101211.44
2019-04-22T08:54:25.951Z,101215.73
2019-04-22T08:56:50.721Z,101208.06
2019-04-22T08:59:22.095Z,101211.56
2019-04-22T09:01:57.461Z,101210.46
2019-04-22T09:04:23.346Z,101208.55
2019-04-22T09:09:42.898Z,101211.84
2019-04-22T09:12:11.335Z,101214.77
2019-04-22T09:17:13.731Z,101210.28
2019-04-22T09:19:43.820Z,101205.47
2019-04-22T09:22:15.482Z,101206.63
2019-04-22T09:27:24.907Z,101202.65
2019-04-22T09:29:56.466Z,101198.45
2019-04-22T09:32:36.413Z,101200.73
2019-04-22T09:34:51.374Z,101195.30
2019-04-22T09:37:26.846Z,101197.33
2019-04-22T09:40:03.274Z,101195.24
2019-04-22T09:42:32.289Z,101201.16
2019-04-22T09:45:01.927Z,101191.46
2019-04-22T09:47:37.284Z,101197.07
2019-04-22T09:50:24.233Z,101197.80
2019-04-22T09:52:35.949Z,101194.20
2019-04-22T09:55:15.401Z,101197.34
2019-04-22T09:57:43.855Z,101189.97
2019-04-22T10:00:31.560Z,101182.08
2019-04-22T10:03:07.208Z,101187.91
2019-04-22T10:05:32.883Z,101174.60
2019-04-22T10:08:14.471Z,101187.56
2019-04-22T10:10:46.884Z,101180.15
2019-04-22T10:13:18.694Z,101187.00
2019-04-22T10:15:52.222Z,101184.28
2019-04-22T10:18:23.329Z,101181.26
2019-04-22T10:21:08.389Z,101176.46
2019-04-22T10:23:25.287Z,101176.73
2019-04-22T10:25:59.081Z,101181.23
2019-04-22T10:28:32.578Z,101180.36
2019-04-22T10:30:52.042Z,101174.87
2019-04-22T10:33:26.884Z,101172.55
2019-04-22T10:35:41.396Z,101170.95
2019-04-22T10:38:12.723Z,101175.42
2019-04-22T10:40:42.864Z,101170.30
2019-04-22T10:43:12.928Z,101171.18
2019-04-22T10:45:46.028Z,101172.64
2019-04-22T10:48:16.516Z,101167.40
2019-04-22T10:50:48.824Z,101165.36
2019-04-22T10:53:19.723Z,101159.72
2019-04-22T10:55:51.688Z,101157.55
2019-04-22T10:58:22.889Z,101154.41
2019-04-22T11:00:54.409Z,101158.99
2019-04-22T11:03:26.551Z,101161.28
2019-04-22T11:05:57.164Z,101159.56
2019-04-22T11:08:37.897Z,101153.62
2019-04-22T11:11:14.091Z,101155.42
2019-04-22T11:13:31.735Z,101149.76
2019-04-22T11:16:03.503Z,101148.34
2019-04-22T11:18:33.813Z,101152.54
2019-04-22T11:21:05.332Z,101145.00
2019-04-22T11:23:36.451Z,101146.23
2019-04-22T11:26:08.112Z,101146.30
2019-04-22T11:28:41.387Z,101144.06
2019-04-22T11:31:14.548Z,101138.60
2019-04-22T11:33:44.992Z,101143.69
2019-04-22T11:36:15.822Z,101145.56
2019-04-22T11:38:52.315Z,101145.44
2019-04-22T11:41:17.590Z,101140.52
2019-04-22T11:43:49.414Z,101141.39
2019-04-22T11:46:21.097Z,101146.69
2019-04-22T11:48:51.885Z,101135.50
2019-04-22T11:51:22.224Z,101133.50
2019-04-22T11:53:52.650Z,101138.13
2019-04-22T11:56:23.003Z,101132.19
2019-04-22T11:58:53.147Z,101127.09
2019-04-22T12:01:24.475Z,101130.40
2019-04-22T12:03:55.782Z,101117.55
2019-04-22T12:06:26.318Z,101117.84
2019-04-22T12:08:57.577Z,101129.50
2019-04-22T12:11:28.412Z,101118.28
2019-04-22T12:14:00.006Z,101119.73
2019-04-22T12:16:31.658Z,101116.66
2019-04-22T12:19:02.965Z,101115.62
2019-04-22T12:21:33.322Z,101112.25
2019-04-22T12:24:03.451Z,101110.03
2019-04-22T12:26:34.557Z,101111.48
2019-04-22T12:29:07.068Z,101109.37
2019-04-22T12:31:37.668Z,101109.00
2019-04-22T12:34:07.998Z,101108.09
2019-04-22T12:36:38.544Z,101107.09
2019-04-22T12:39:11.433Z,101107.98
2019-04-22T12:41:42.395Z,101108.50
2019-04-22T12:44:13.334Z,101108.91
2019-04-22T12:46:44.406Z,101100.88
2019-04-22T12:49:14.405Z,101097.91
2019-04-22T12:51:45.373Z,101098.70
2019-04-22T12:54:15.466Z,101098.92
2019-04-22T12:56:47.961Z,101096.20
2019-04-22T12:59:19.396Z,101093.48
2019-04-22T13:01:50.983Z,101095.22
2019-04-22T13:07:17.721Z,101096.92
2019-04-22T13:09:49.427Z,101085.80
2019-04-22T13:12:22.392Z,101086.30
2019-04-22T13:14:52.805Z,101083.95
2019-04-22T13:17:23.204Z,101081.42
2019-04-22T13:19:54.101Z,101083.94
2019-04-22T13:22:25.054Z,101088.81
2019-04-22T13:24:55.248Z,101082.82
2019-04-22T13:27:26.839Z,101083.48
2019-04-22T13:29:57.178Z,101079.36
2019-04-22T13:32:27.179Z,101083.75
2019-04-22T13:35:01.488Z,101075.16
2019-04-22T13:37:30.794Z,101073.94
2019-04-22T13:40:01.341Z,101067.88
2019-04-22T13:42:33.385Z,101069.98
2019-04-22T13:45:05.713Z,101066.13
2019-04-22T13:47:54.666Z,101062.04
2019-04-22T13:50:47.583Z,101058.81
2019-04-22T13:53:18.319Z,101063.17
2019-04-22T13:57:59.116Z,101060.27
2019-04-22T14:00:24.934Z,101061.53
2019-04-22T14:06:00.692Z,101051.19
2019-04-22T14:08:31.403Z,101060.94
2019-04-22T14:11:13.172Z,101051.67
2019-04-22T14:13:34.231Z,101054.82
2019-04-22T14:16:04.807Z,101051.17
2019-04-22T14:18:35.014Z,101047.96
2019-04-22T14:21:05.262Z,101046.49
2019-04-22T14:23:36.314Z,101048.48
2019-04-22T14:26:07.171Z,101054.98
2019-04-22T14:28:37.532Z,101051.55
2019-04-22T14:31:08.789Z,101049.56
2019-04-22T14:33:40.715Z,101050.73
2019-04-22T14:36:11.669Z,101042.62
2019-04-22T14:38:42.064Z,101047.55
2019-04-22T14:41:34.246Z,101047.39
2019-04-22T14:44:49.628Z,101046.01
2019-04-22T14:46:39.193Z,101040.00
2019-04-22T14:49:10.693Z,101040.64
2019-04-22T14:51:43.947Z,101038.38
2019-04-22T14:54:09.691Z,101033.31
2019-04-22T14:56:24.394Z,101031.64
2019-04-22T14:58:56.572Z,101030.40
2019-04-22T15:01:26.762Z,101033.23
2019-04-22T15:03:56.893Z,101036.11
2019-04-22T15:06:28.371Z,101032.58
2019-04-22T15:08:59.731Z,101033.26
2019-04-22T15:11:41.813Z,101035.27
2019-04-22T15:14:01.549Z,101028.53
2019-04-22T15:16:50.912Z,101031.22
2019-04-22T15:19:25.835Z,101030.41
2019-04-22T15:21:56.597Z,101040.82
2019-04-22T15:24:27.482Z,101035.42
2019-04-22T15:26:58.765Z,101023.61
2019-04-22T15:29:29.745Z,101029.84
2019-04-22T15:32:00.973Z,101031.09
2019-04-22T15:34:32.565Z,101022.03
2019-04-22T15:37:04.179Z,101025.23
2019-04-22T15:39:34.361Z,101020.69
2019-04-22T15:42:13.604Z,101025.55
2019-04-22T15:44:37.442Z,101029.77
2019-04-22T15:47:09.153Z,101025.59
2019-04-22T15:49:40.265Z,101022.26
2019-04-22T15:52:10.570Z,101019.91
2019-04-22T15:54:41.570Z,101020.45
2019-04-22T15:57:12.870Z,101023.46
2019-04-22T15:59:59.253Z,101030.05
2019-04-22T16:02:15.994Z,101026.09
2019-04-22T16:04:46.598Z,101027.77
2019-04-22T16:07:17.114Z,101023.33
2019-04-22T16:09:47.890Z,101022.19
2019-04-22T16:12:26.186Z,101032.99
2019-04-22T16:14:53.401Z,101023.28
2019-04-22T16:17:22.467Z,101023.16
2019-04-22T16:19:53.258Z,101019.05
2019-04-22T16:22:26.633Z,101024.50
2019-04-22T16:24:58.261Z,101025.46
2019-04-22T16:27:30.249Z,101030.89
2019-04-22T16:30:01.335Z,101030.70
2019-04-22T16:32:33.688Z,101027.88
2019-04-22T16:35:06.354Z,101024.27
2019-04-22T16:37:37.064Z,101024.72
2019-04-22T16:40:09.196Z,101023.34
2019-04-22T16:42:45.900Z,101030.13
2019-04-22T16:45:15.620Z,101023.77
2019-04-22T16:47:46.765Z,101027.86
2019-04-22T16:50:18.169Z,101025.55
2019-04-22T16:52:48.346Z,101029.61
2019-04-22T16:55:18.942Z,101030.67
2019-04-22T16:57:49.009Z,101033.87
2019-04-22T17:00:20.625Z,101032.72
2019-04-22T17:02:58.703Z,101028.23
2019-04-22T17:05:49.882Z,101041.43
2019-04-22T17:08:22.156Z,101039.25
2019-04-22T17:10:53.641Z,101041.86
2019-04-22T17:13:28.352Z,101049.20
2019-04-22T17:15:59.035Z,101049.45
2019-04-22T17:18:27.902Z,101046.34
2019-04-22T17:20:58.494Z,101054.67
2019-04-22T17:23:29.639Z,101055.39
2019-04-22T17:26:00.810Z,101057.44
2019-04-22T17:28:31.340Z,101058.28
2019-04-22T17:31:01.939Z,101058.71
2019-04-22T17:33:32.779Z,101059.64
2019-04-22T17:36:03.324Z,101061.45
2019-04-22T17:38:44.340Z,101055.80
2019-04-22T17:41:18.750Z,101064.73
2019-04-22T17:43:59.064Z,101061.94
2019-04-22T17:46:30.769Z,101065.54
2019-04-22T17:49:04.302Z,101064.34
2019-04-22T17:51:36.319Z,101068.97
2019-04-22T17:54:12.867Z,101070.65
2019-04-22T17:56:46.846Z,101067.11
2019-04-22T17:59:17.186Z,101063.25
2019-04-22T18:01:45.094Z,101073.59
2019-04-22T18:03:59.303Z,101072.34
2019-04-22T18:06:56.557Z,101077.52
2019-04-22T18:09:19.362Z,101081.42
2019-04-22T18:11:51.001Z,101091.22
2019-04-22T18:14:35.026Z,101085.34
2019-04-22T18:16:53.557Z,101096.05
2019-04-22T18:19:26.281Z,101097.87
2019-04-22T18:21:53.128Z,101094.20
2019-04-22T18:24:20.108Z,101102.36
2019-04-22T18:27:18.985Z,101101.55
2019-04-22T18:29:33.070Z,101100.33
2019-04-22T18:32:00.750Z,101106.52
2019-04-22T18:34:32.526Z,101111.61
2019-04-22T18:37:09.305Z,101116.20
2019-04-22T18:39:50.973Z,101117.04
2019-04-22T18:42:15.021Z,101123.58
2019-04-22T18:44:45.533Z,101125.53
2019-04-22T18:47:14.611Z,101124.14
2019-04-22T18:49:46.198Z,101115.15
2019-04-22T18:52:32.539Z,101126.02
2019-04-22T18:55:14.293Z,101128.81
2019-04-22T18:58:01.073Z,101134.07
2019-04-22T19:00:21.145Z,101129.09
2019-04-22T19:03:03.030Z,101133.88
2019-04-22T19:05:45.531Z,101140.95
2019-04-22T19:08:23.218Z,101136.24
2019-04-22T19:11:06.923Z,101136.16
2019-04-22T19:16:01.480Z,101136.59
2019-04-22T19:21:02.694Z,101140.34
2019-04-22T19:23:32.772Z,101146.39
2019-04-22T19:26:04.059Z,101150.91
2019-04-22T19:28:43.843Z,101152.58
2019-04-22T19:31:13.515Z,101152.78
2019-04-22T19:33:40.672Z,101153.38
2019-04-22T19:36:19.203Z,101158.60
2019-04-22T19:38:32.249Z,101147.99
2019-04-22T19:41:20.015Z,101159.60
2019-04-22T19:43:46.886Z,101154.92
2019-04-22T19:46:16.753Z,101159.60
2019-04-22T19:51:24.375Z,101162.03
2019-04-22T19:53:55.991Z,101165.27
2019-04-22T19:56:21.139Z,101157.72
2019-04-22T19:58:54.890Z,101158.29
2019-04-22T20:01:27.276Z,101154.69
2019-04-22T20:04:19.291Z,101162.75
2019-04-22T20:06:45.589Z,101158.52
2019-04-22T20:09:21.095Z,101167.97
2019-04-22T20:11:49.464Z,101158.11
2019-04-22T20:14:23.087Z,101166.26
2019-04-22T20:16:53.369Z,101166.83
2019-04-22T20:19:36.106Z,101163.97
2019-04-22T20:21:58.102Z,101168.52
2019-04-22T20:24:14.538Z,101170.00
2019-04-22T20:27:10.122Z,101170.37
2019-04-22T20:29:38.368Z,101170.84
2019-04-22T20:32:05.695Z,101173.55
2019-04-22T20:34:42.250Z,101175.14
2019-04-22T20:39:45.672Z,101174.06
2019-04-22T20:42:33.207Z,101176.33
2019-04-22T20:44:46.189Z,101174.50
2019-04-22T20:47:13.928Z,101175.34
2019-04-22T20:49:50.373Z,101176.75
2019-04-22T20:52:26.169Z,101176.49
2019-04-22T20:54:53.057Z,101179.25
2019-04-22T20:57:25.947Z,101178.45
2019-04-22T20:59:52.224Z,101177.86
2019-04-22T21:02:19.308Z,101175.75
2019-04-22T21:04:49.005Z,101178.70
2019-04-22T21:07:26.799Z,101176.37
2019-04-22T21:09:57.943Z,101173.88
2019-04-22T21:12:27.345Z,101181.36
2019-04-22T21:15:10.722Z,101177.68
2019-04-22T21:17:39.021Z,101187.77
2019-04-22T21:20:21.996Z,101192.56
2019-04-22T21:22:43.472Z,101183.76
2019-04-22T21:25:08.894Z,101181.34
2019-04-22T21:27:52.637Z,101180.48
2019-04-22T21:30:12.436Z,101180.98
2019-04-22T21:32:45.325Z,101184.48
2019-04-22T21:35:32.150Z,101180.92
2019-04-22T21:37:57.881Z,101187.18
2019-04-22T21:40:32.420Z,101185.97
2019-04-22T21:43:10.669Z,101183.71
2019-04-22T21:45:25.251Z,101182.25
2019-04-22T21:48:15.508Z,101183.91
2019-04-22T21:50:48.100Z,101186.40
2019-04-22T21:53:17.699Z,101185.23
2019-04-22T21:55:43.748Z,101188.80
2019-04-22T21:58:21.375Z,101178.34
2019-04-22T22:01:02.595Z,101177.33
2019-04-22T22:03:30.062Z,101186.51
2019-04-22T22:05:49.240Z,101177.78
2019-04-22T22:08:32.105Z,101178.75
2019-04-22T22:11:03.786Z,101178.36
2019-04-22T22:13:34.811Z,101182.89
2019-04-22T22:16:04.624Z,101177.66
2019-04-22T22:18:30.364Z,101180.09
2019-04-22T22:21:26.853Z,101174.96
2019-04-22T22:23:42.470Z,101178.70
2019-04-22T22:26:09.576Z,101181.42
2019-04-22T22:31:21.975Z,101179.47
2019-04-22T22:33:48.296Z,101173.11
2019-04-22T22:36:16.333Z,101175.95
2019-04-22T22:38:49.649Z,101182.14
2019-04-22T22:41:05.847Z,101179.52
2019-04-22T22:43:43.247Z,101178.02
2019-04-22T22:46:17.735Z,101180.97
2019-04-22T22:49:03.277Z,101179.92
2019-04-22T22:51:39.488Z,101183.09
2019-04-22T22:54:12.192Z,101181.58
2019-04-22T22:56:46.994Z,101186.55
2019-04-22T22:59:10.839Z,101189.89
2019-04-22T23:01:45.426Z,101186.30
2019-04-22T23:04:16.502Z,101190.29
2019-04-22T23:06:53.178Z,101194.04
2019-04-22T23:09:19.845Z,101195.81
2019-04-22T23:12:06.058Z,101195.55
2019-04-22T23:14:23.253Z,101187.13
2019-04-22T23:16:41.896Z,101190.42
2019-04-22T23:19:06.869Z,101193.73
2019-04-22T23:21:41.484Z,101192.26
2019-04-22T23:24:26.489Z,101184.70
2019-04-22T23:27:14.656Z,101199.56
2019-04-22T23:29:55.527Z,101200.20
2019-04-22T23:32:31.898Z,101190.58
2019-04-22T23:35:10.446Z,101198.55
2019-04-22T23:37:44.121Z,101196.27
2019-04-22T23:40:23.882Z,101196.31
2019-04-22T23:42:44.509Z,101202.27
2019-04-22T23:45:21.085Z,101199.30
2019-04-22T23:47:41.217Z,101205.64
2019-04-22T23:50:26.728Z,101208.37
2019-04-22T23:52:58.967Z,101208.44
2019-04-22T23:55:33.832Z,101208.37
2019-04-22T23:58:03.572Z,101214.08
